Time;durP1;ratioP1;P1;durP2;ratioP2;P2;SDS_P1;SDS_P2;PMS_P1;PMS_P2;Temp;Humidity;BMP_temperature;BMP_pressure;BME280_temperature;BME280_humidity;BME280_pressure;Samples;Min_cycle;Max_cycle;Signal;HPM_P1;HPM_P2
2023/03/05 00:00:40;;;;;;;19.90;9.20;;;12.10;44.30;;;;;;5087283;28;45444;-65
2023/03/05 00:03:07;;;;;;;21.80;9.33;;;12.10;44.30;;;;;;5087195;28;45276;-64
2023/03/05 00:05:34;;;;;;;23.77;9.77;;;12.10;44.30;;;;;;5087150;28;45351;-63
2023/03/05 00:08:01;;;;;;;16.77;9.20;;;12.00;44.30;;;;;;5101882;27;45333;-65
2023/03/05 00:10:28;;;;;;;22.03;9.03;;;12.00;44.30;;;;;;5107607;27;47335;-65
2023/03/05 00:12:54;;;;;;;18.67;9.70;;;12.00;44.30;;;;;;5096554;27;45445;-66
2023/03/05 00:15:21;;;;;;;20.60;9.70;;;11.90;44.30;;;;;;5089167;27;45500;-64
2023/03/05 00:17:49;;;;;;;16.57;9.23;;;11.90;44.20;;;;;;5093545;27;45407;-64
2023/03/05 00:20:17;;;;;;;15.50;8.60;;;11.90;44.40;;;;;;5098443;27;45264;-64
2023/03/05 00:22:43;;;;;;;15.50;8.43;;;11.90;44.50;;;;;;5094260;27;45467;-64
2023/03/05 00:25:11;;;;;;;20.07;9.47;;;11.80;44.40;;;;;;5095822;27;45495;-64
2023/03/05 00:27:37;;;;;;;15.43;8.40;;;11.80;44.40;;;;;;5096231;27;45432;-64
2023/03/05 00:30:05;;;;;;;19.40;9.07;;;11.70;44.50;;;;;;5096468;27;46455;-64
2023/03/05 00:32:32;;;;;;;18.17;8.57;;;11.70;44.50;;;;;;5097008;27;45312;-64
2023/03/05 00:35:00;;;;;;;16.03;8.93;;;11.70;44.50;;;;;;5095935;27;45297;-63
2023/03/05 00:37:27;;;;;;;14.97;8.70;;;11.60;44.50;;;;;;5089804;27;45441;-65
2023/03/05 00:39:54;;;;;;;16.57;8.40;;;11.60;45.20;;;;;;5086015;28;46407;-63
2023/03/05 00:42:21;;;;;;;17.53;9.03;;;11.60;44.70;;;;;;5086064;28;45286;-64
2023/03/05 00:44:48;;;;;;;16.93;8.50;;;11.50;44.60;;;;;;5083439;28;45297;-64
2023/03/05 00:47:17;;;;;;;15.20;8.43;;;11.50;44.70;;;;;;5086002;27;44744;-64
2023/03/05 00:49:43;;;;;;;17.77;8.80;;;11.50;44.70;;;;;;5085963;28;45479;-64
2023/03/05 00:52:12;;;;;;;17.13;8.90;;;11.40;44.70;;;;;;5085832;28;45249;-63
2023/03/05 00:54:39;;;;;;;17.80;8.70;;;11.40;44.70;;;;;;5086079;28;45424;-64
2023/03/05 00:57:06;;;;;;;12.90;8.20;;;11.40;44.70;;;;;;5086207;28;45432;-65
2023/03/05 00:59:32;;;;;;;16.37;8.60;;;11.40;44.70;;;;;;5086133;28;46731;-64
2023/03/05 01:01:59;;;;;;;21.17;8.43;;;11.40;44.70;;;;;;5086172;28;45223;-63
2023/03/05 01:04:26;;;;;;;18.13;8.87;;;11.30;44.60;;;;;;5086599;28;45317;-64
2023/03/05 01:06:53;;;;;;;16.60;8.93;;;11.30;45.30;;;;;;5086350;28;45602;-64
2023/03/05 01:09:24;;;;;;;22.70;8.93;;;11.30;44.70;;;;;;5086254;28;45430;-64
2023/03/05 01:11:50;;;;;;;18.33;9.13;;;11.30;44.70;;;;;;5086394;28;45264;-64
2023/03/05 01:14:17;;;;;;;18.10;9.37;;;11.30;44.70;;;;;;5086009;28;45326;-64
2023/03/05 01:16:44;;;;;;;19.57;9.63;;;11.20;44.60;;;;;;5086388;28;45474;-64
2023/03/05 01:19:11;;;;;;;18.47;8.10;;;11.20;44.60;;;;;;5086202;28;45397;-64
2023/03/05 01:21:38;;;;;;;17.17;8.40;;;11.20;44.70;;;;;;5085918;28;45289;-64
2023/03/05 01:24:05;;;;;;;15.57;7.97;;;11.10;44.60;;;;;;5086060;28;45243;-64
2023/03/05 01:26:34;;;;;;;16.23;8.23;;;11.10;44.60;;;;;;5086178;28;45466;-64
2023/03/05 01:29:00;;;;;;;17.70;8.73;;;11.10;44.60;;;;;;5085816;28;46393;-64
2023/03/05 01:31:28;;;;;;;15.97;7.87;;;11.10;44.60;;;;;;5085805;28;45442;-64
2023/03/05 01:33:54;;;;;;;22.03;8.97;;;11.00;44.60;;;;;;5086261;28;45249;-64
2023/03/05 01:36:23;;;;;;;16.60;8.23;;;11.10;44.60;;;;;;5086195;28;45400;-63
2023/03/05 01:38:50;;;;;;;15.03;8.57;;;11.00;44.60;;;;;;5085662;28;45655;-63
2023/03/05 01:41:17;;;;;;;18.73;8.27;;;11.00;44.60;;;;;;5085782;28;45401;-63
2023/03/05 01:43:45;;;;;;;16.80;7.83;;;11.00;44.70;;;;;;5085780;28;45345;-64
2023/03/05 01:46:30;;;;;;;16.50;8.27;;;11.00;44.60;;;;;;5086094;28;45433;-64
2023/03/05 01:49:01;;;;;;;12.43;7.63;;;11.00;44.60;;;;;;5085669;28;45310;-64
2023/03/05 01:51:29;;;;;;;17.27;8.63;;;10.90;44.50;;;;;;5085722;28;45492;-64
2023/03/05 01:53:56;;;;;;;15.27;8.13;;;10.90;44.60;;;;;;5085665;28;45343;-64
2023/03/05 01:56:23;;;;;;;15.60;7.80;;;10.90;44.60;;;;;;5086077;28;45258;-64
2023/03/05 01:58:52;;;;;;;14.43;7.33;;;10.90;44.60;;;;;;5084715;28;46372;-64
2023/03/05 02:01:18;;;;;;;14.07;8.00;;;10.80;44.60;;;;;;5085637;28;45313;-65
2023/03/05 02:03:46;;;;;;;14.73;8.80;;;10.80;44.50;;;;;;5085671;28;45349;-64
2023/03/05 02:06:12;;;;;;;18.07;9.87;;;10.80;44.50;;;;;;5086398;28;45256;-63
2023/03/05 02:08:39;;;;;;;16.03;7.90;;;10.80;44.50;;;;;;5085688;28;45515;-63
2023/03/05 02:11:06;;;;;;;16.47;8.63;;;10.80;44.60;;;;;;5085874;28;45387;-63
2023/03/05 02:13:37;;;;;;;13.20;8.03;;;10.80;44.60;;;;;;5086210;28;45233;-64
2023/03/05 02:16:05;;;;;;;12.67;7.03;;;10.80;44.60;;;;;;5085746;28;45197;-63
2023/03/05 02:18:32;;;;;;;14.80;7.67;;;10.70;44.60;;;;;;5085888;28;45576;-64
2023/03/05 02:21:03;;;;;;;16.90;7.57;;;10.70;44.50;;;;;;5085821;28;45343;-63
2023/03/05 02:23:32;;;;;;;13.27;7.90;;;10.70;44.50;;;;;;5085662;28;45404;-65
2023/03/05 02:25:59;;;;;;;14.60;7.33;;;10.70;44.50;;;;;;5085849;28;45514;-63
2023/03/05 02:28:28;;;;;;;15.10;7.93;;;10.70;44.50;;;;;;5085618;28;46266;-63
2023/03/05 02:30:55;;;;;;;15.67;7.57;;;10.60;44.50;;;;;;5085342;28;45594;-64
2023/03/05 02:33:22;;;;;;;12.50;7.03;;;10.60;44.70;;;;;;5085704;28;45234;-64
2023/03/05 02:35:48;;;;;;;15.57;7.97;;;10.60;44.50;;;;;;5085566;28;45415;-64
2023/03/05 02:38:17;;;;;;;13.83;7.67;;;10.60;44.50;;;;;;5085340;28;45401;-63
2023/03/05 02:40:44;;;;;;;14.23;7.40;;;10.60;44.50;;;;;;5085144;28;45265;-64
2023/03/05 02:43:11;;;;;;;15.40;7.67;;;10.60;44.50;;;;;;5085025;28;45317;-64
2023/03/05 02:45:38;;;;;;;13.77;7.03;;;10.60;44.60;;;;;;5085408;28;45313;-63
2023/03/05 02:48:06;;;;;;;12.00;7.30;;;10.50;44.50;;;;;;5085191;28;45276;-64
2023/03/05 02:50:32;;;;;;;15.37;8.47;;;10.50;44.50;;;;;;5085293;28;45352;-63
2023/03/05 02:52:59;;;;;;;15.03;7.50;;;10.50;44.50;;;;;;5084897;28;45277;-64
2023/03/05 02:55:28;;;;;;;14.90;7.77;;;10.50;44.50;;;;;;5085255;28;45440;-64
2023/03/05 02:57:54;;;;;;;12.07;7.23;;;10.50;44.50;;;;;;5084679;28;46690;-64
2023/03/05 03:00:22;;;;;;;14.00;7.30;;;10.50;44.50;;;;;;5084931;28;45354;-64
2023/03/05 03:02:48;;;;;;;16.07;7.63;;;10.40;44.40;;;;;;5084768;28;45295;-64
2023/03/05 03:05:16;;;;;;;12.43;6.90;;;10.40;44.40;;;;;;5084910;28;45276;-64
2023/03/05 03:07:42;;;;;;;12.97;7.00;;;10.40;44.40;;;;;;5082158;28;45360;-64
2023/03/05 03:10:11;;;;;;;11.70;7.10;;;10.40;44.50;;;;;;5085130;27;45461;-64
2023/03/05 03:12:39;;;;;;;14.90;7.50;;;10.40;44.50;;;;;;5088155;28;45400;-64
2023/03/05 03:15:08;;;;;;;13.67;7.33;;;10.40;44.50;;;;;;5088205;28;45507;-64
2023/03/05 03:17:35;;;;;;;12.13;6.97;;;10.30;44.40;;;;;;5088270;28;47414;-64
2023/03/05 03:20:02;;;;;;;12.50;7.17;;;10.30;44.50;;;;;;5087856;28;45248;-64
2023/03/05 03:22:29;;;;;;;15.67;7.50;;;10.30;44.50;;;;;;5087992;28;45293;-64
2023/03/05 03:24:56;;;;;;;12.43;7.03;;;10.30;44.50;;;;;;5087976;28;45526;-64
2023/03/05 03:27:23;;;;;;;15.33;7.13;;;10.30;44.50;;;;;;5087953;28;45452;-63
2023/03/05 03:29:51;;;;;;;13.00;6.73;;;10.30;44.50;;;;;;5088018;28;45486;-64
2023/03/05 03:32:18;;;;;;;14.47;6.90;;;10.30;44.50;;;;;;5087844;28;45266;-64
2023/03/05 03:34:46;;;;;;;13.17;7.03;;;10.30;44.50;;;;;;5087916;28;45292;-64
2023/03/05 03:37:14;;;;;;;14.17;7.83;;;10.20;45.00;;;;;;5087529;28;45398;-63
2023/03/05 03:39:41;;;;;;;13.20;7.10;;;10.20;44.50;;;;;;5087820;28;45324;-64
2023/03/05 03:42:08;;;;;;;12.57;6.63;;;10.20;44.50;;;;;;5087639;28;45297;-63
2023/03/05 03:44:35;;;;;;;11.17;6.87;;;10.20;44.50;;;;;;5087898;28;45309;-63
2023/03/05 03:47:03;;;;;;;13.33;7.27;;;10.20;44.50;;;;;;5087354;28;45360;-63
2023/03/05 03:49:30;;;;;;;12.83;7.00;;;10.20;44.50;;;;;;5087519;28;45163;-63
2023/03/05 03:51:57;;;;;;;12.20;6.57;;;10.20;44.50;;;;;;5087625;28;45301;-64
2023/03/05 03:54:25;;;;;;;11.93;6.87;;;10.20;44.50;;;;;;5087649;28;45281;-64
2023/03/05 03:56:52;;;;;;;12.37;6.43;;;10.10;44.50;;;;;;5087233;28;45388;-65
2023/03/05 03:59:19;;;;;;;12.23;7.07;;;10.10;44.50;;;;;;5087304;28;45364;-64
2023/03/05 04:01:46;;;;;;;12.20;6.60;;;10.10;44.50;;;;;;5087384;28;45332;-64
2023/03/05 04:04:14;;;;;;;11.23;6.60;;;10.10;44.50;;;;;;5087552;28;45463;-63
2023/03/05 04:06:42;;;;;;;12.13;6.90;;;10.10;44.60;;;;;;5087484;28;46398;-64
2023/03/05 04:09:08;;;;;;;11.83;7.13;;;10.10;44.50;;;;;;5087180;28;45526;-64
2023/03/05 04:11:35;;;;;;;11.53;6.17;;;10.10;44.60;;;;;;5087680;28;45388;-64
2023/03/05 04:14:02;;;;;;;12.93;6.97;;;10.10;44.60;;;;;;5087274;28;45396;-63
2023/03/05 04:16:29;;;;;;;11.73;6.50;;;10.10;44.60;;;;;;5086738;28;45219;-64
2023/03/05 04:18:56;;;;;;;11.13;6.47;;;10.00;44.50;;;;;;5087390;28;44724;-64
2023/03/05 04:21:24;;;;;;;13.53;6.30;;;10.00;44.60;;;;;;5087046;28;45388;-63
2023/03/05 04:23:51;;;;;;;13.13;6.50;;;10.00;44.60;;;;;;5086546;28;45346;-64
2023/03/05 04:26:18;;;;;;;12.40;6.50;;;10.00;44.60;;;;;;5086881;28;46775;-64
2023/03/05 04:28:44;;;;;;;12.10;6.37;;;10.00;44.60;;;;;;5086844;28;45308;-64
2023/03/05 04:31:11;;;;;;;12.13;6.60;;;10.00;44.60;;;;;;5084429;28;45411;-63
2023/03/05 04:33:38;;;;;;;14.93;6.40;;;10.00;44.60;;;;;;5086974;28;45388;-64
2023/03/05 04:36:06;;;;;;;9.80;5.50;;;10.00;44.60;;;;;;5086721;28;47319;-64
2023/03/05 04:38:34;;;;;;;10.37;6.57;;;10.00;44.60;;;;;;5087129;28;45261;-64
2023/03/05 04:41:01;;;;;;;12.73;6.83;;;10.00;44.60;;;;;;5086900;28;45257;-63
2023/03/05 04:43:28;;;;;;;11.13;6.13;;;10.00;45.20;;;;;;5086902;28;45435;-63
2023/03/05 04:45:55;;;;;;;12.80;6.73;;;10.00;44.60;;;;;;5086777;28;46390;-63
2023/03/05 04:48:22;;;;;;;12.90;5.83;;;10.00;44.60;;;;;;5086588;28;45327;-64
2023/03/05 04:50:49;;;;;;;10.00;5.40;;;10.00;44.60;;;;;;5086714;28;45263;-64
2023/03/05 04:53:16;;;;;;;12.83;6.50;;;9.90;44.60;;;;;;5086948;28;45514;-65
2023/03/05 04:55:44;;;;;;;11.53;6.30;;;9.90;44.60;;;;;;5086467;28;45498;-64
2023/03/05 04:58:11;;;;;;;10.53;6.63;;;9.90;44.60;;;;;;5086486;28;45247;-65
2023/03/05 05:00:38;;;;;;;10.30;6.07;;;9.90;44.60;;;;;;5086717;28;45245;-63
2023/03/05 05:03:05;;;;;;;9.57;5.33;;;9.90;44.60;;;;;;5086444;28;45467;-64
2023/03/05 05:05:32;;;;;;;11.10;5.77;;;9.90;44.60;;;;;;5086375;28;45293;-64
2023/03/05 05:07:59;;;;;;;10.33;5.47;;;9.90;44.60;;;;;;5086350;28;45388;-64
2023/03/05 05:10:26;;;;;;;10.57;5.37;;;9.90;44.60;;;;;;5086279;28;45321;-63
2023/03/05 05:12:54;;;;;;;12.67;7.70;;;9.90;44.60;;;;;;5086402;28;45287;-64
2023/03/05 05:15:21;;;;;;;10.63;5.30;;;9.90;44.60;;;;;;5085849;28;46652;-63
2023/03/05 05:17:48;;;;;;;10.63;5.60;;;9.90;44.60;;;;;;5086126;28;45395;-64
2023/03/05 05:20:15;;;;;;;11.10;6.07;;;9.90;44.60;;;;;;5086221;28;45353;-63
2023/03/05 05:22:42;;;;;;;9.43;5.87;;;9.90;44.70;;;;;;5086151;28;45426;-64
2023/03/05 05:25:10;;;;;;;9.60;5.77;;;9.90;44.60;;;;;;5085980;28;46351;-64
2023/03/05 05:27:37;;;;;;;9.17;5.43;;;9.90;44.60;;;;;;5085941;28;45401;-64
2023/03/05 05:30:06;;;;;;;10.20;5.33;;;9.90;44.60;;;;;;5086030;28;45321;-64
2023/03/05 05:32:33;;;;;;;8.40;5.23;;;9.80;44.50;;;;;;5086062;28;45384;-64
2023/03/05 05:35:00;;;;;;;11.57;6.07;;;9.80;44.50;;;;;;5084625;27;46350;-64
2023/03/05 05:37:27;;;;;;;12.00;5.87;;;9.80;44.50;;;;;;5086027;28;45573;-64
2023/03/05 05:39:54;;;;;;;10.63;5.33;;;9.80;44.60;;;;;;5086038;28;45316;-63
2023/03/05 05:42:22;;;;;;;11.27;5.90;;;9.90;45.20;;;;;;5086248;28;45506;-64
2023/03/05 05:44:49;;;;;;;9.53;4.67;;;9.80;44.60;;;;;;5085648;28;46389;-63
2023/03/05 05:47:17;;;;;;;8.87;4.93;;;9.80;44.50;;;;;;5083109;28;45339;-64
2023/03/05 05:49:44;;;;;;;5.93;4.47;;;9.80;44.50;;;;;;5085882;28;45290;-63
2023/03/05 05:52:10;;;;;;;9.50;5.30;;;9.80;44.50;;;;;;5085714;28;45420;-65
2023/03/05 05:54:38;;;;;;;9.20;5.27;;;9.80;45.20;;;;;;5085853;28;47422;-63
2023/03/05 05:57:05;;;;;;;7.93;4.53;;;9.80;44.50;;;;;;5085746;28;45259;-64
2023/03/05 05:59:31;;;;;;;8.30;4.93;;;9.80;44.50;;;;;;5085993;28;45222;-64
2023/03/05 06:01:58;;;;;;;7.20;4.70;;;9.80;45.10;;;;;;5086009;28;45405;-64
2023/03/05 06:04:26;;;;;;;8.30;5.03;;;9.80;44.50;;;;;;5085256;28;45331;-64
2023/03/05 06:06:53;;;;;;;7.67;4.37;;;9.80;44.50;;;;;;5085521;28;45367;-64
2023/03/05 06:09:20;;;;;;;6.77;3.90;;;9.80;44.50;;;;;;5085951;28;45231;-64
2023/03/05 06:11:47;;;;;;;7.63;4.80;;;9.80;45.10;;;;;;5085735;28;45329;-64
2023/03/05 06:14:14;;;;;;;9.17;4.97;;;9.80;44.50;;;;;;5085189;28;46421;-64
2023/03/05 06:16:41;;;;;;;9.40;4.87;;;9.80;44.50;;;;;;5085287;28;45339;-64
2023/03/05 06:19:09;;;;;;;8.47;4.77;;;9.80;45.10;;;;;;5085489;28;45274;-64
2023/03/05 06:21:37;;;;;;;8.33;4.97;;;9.80;44.50;;;;;;5085658;28;45328;-64
2023/03/05 06:24:04;;;;;;;8.30;4.87;;;9.80;44.50;;;;;;5085027;28;45354;-64
2023/03/05 06:26:31;;;;;;;9.23;5.20;;;9.80;44.60;;;;;;5085178;28;45376;-63
2023/03/05 06:28:58;;;;;;;11.43;5.30;;;9.80;44.60;;;;;;5085322;28;45242;-64
2023/03/05 06:31:25;;;;;;;9.00;4.70;;;9.70;44.50;;;;;;5085363;28;45332;-64
2023/03/05 06:33:53;;;;;;;7.03;4.83;;;9.80;44.50;;;;;;5085192;28;46563;-65
2023/03/05 06:36:20;;;;;;;9.40;4.80;;;9.80;45.10;;;;;;5085120;28;45391;-64
2023/03/05 06:38:49;;;;;;;8.17;5.07;;;9.80;44.50;;;;;;5085182;28;45332;-64
2023/03/05 06:41:17;;;;;;;7.20;4.70;;;9.80;44.50;;;;;;5085365;28;45323;-64
2023/03/05 06:43:44;;;;;;;9.00;5.27;;;9.80;44.50;;;;;;5084702;28;46704;-64
2023/03/05 06:46:12;;;;;;;7.67;4.63;;;9.80;44.60;;;;;;5086900;27;45492;-64
2023/03/05 06:48:39;;;;;;;8.10;4.97;;;9.80;44.50;;;;;;5088771;28;45320;-64
2023/03/05 06:51:12;;;;;;;7.90;4.97;;;9.80;44.50;;;;;;5088791;28;45525;-65
2023/03/05 06:53:39;;;;;;;8.90;4.90;;;9.80;44.40;;;;;;5088213;28;45306;-64
2023/03/05 06:56:07;;;;;;;7.13;4.57;;;9.80;44.50;;;;;;5088478;28;45162;-65
2023/03/05 06:58:34;;;;;;;7.23;4.70;;;9.80;44.40;;;;;;5088600;28;45352;-63
2023/03/05 07:01:01;;;;;;;8.97;4.50;;;9.80;44.50;;;;;;5088752;28;45351;-64
2023/03/05 07:03:28;;;;;;;7.33;4.97;;;9.80;44.40;;;;;;5088024;28;45591;-64
2023/03/05 07:05:55;;;;;;;8.57;5.03;;;9.70;44.40;;;;;;5088158;28;45274;-64
2023/03/05 07:08:21;;;;;;;7.23;4.70;;;9.80;45.00;;;;;;5088385;28;45139;-64
2023/03/05 07:10:48;;;;;;;8.60;5.03;;;9.80;44.40;;;;;;5088769;28;45434;-64
2023/03/05 07:13:16;;;;;;;8.27;4.53;;;9.80;44.40;;;;;;5087841;28;46415;-63
2023/03/05 07:15:43;;;;;;;8.03;4.90;;;9.80;44.30;;;;;;5088006;28;45267;-64
2023/03/05 07:18:10;;;;;;;10.17;6.07;;;9.80;44.30;;;;;;5085795;28;45225;-64
2023/03/05 07:20:37;;;;;;;4.93;3.83;;;9.80;44.30;;;;;;5088325;28;45357;-64
2023/03/05 07:23:04;;;;;;;7.67;4.27;;;9.80;44.40;;;;;;5087777;28;46553;-64
2023/03/05 07:25:31;;;;;;;6.53;4.37;;;9.80;44.30;;;;;;5088155;28;45367;-64
2023/03/05 07:27:58;;;;;;;6.83;4.27;;;9.80;44.30;;;;;;5088104;28;45389;-64
2023/03/05 07:30:26;;;;;;;8.83;4.67;;;9.80;44.30;;;;;;5088161;28;45295;-63
2023/03/05 07:32:53;;;;;;;7.57;4.83;;;9.80;44.30;;;;;;5087693;28;45552;-64
2023/03/05 07:35:20;;;;;;;7.20;4.60;;;9.80;44.30;;;;;;5087795;28;45375;-64
2023/03/05 07:37:46;;;;;;;5.97;4.03;;;9.80;44.30;;;;;;5087951;28;45321;-64
2023/03/05 07:40:13;;;;;;;8.77;4.27;;;9.80;44.30;;;;;;5087993;28;45253;-64
2023/03/05 07:42:40;;;;;;;7.60;4.30;;;9.80;44.30;;;;;;5087623;28;45246;-64
2023/03/05 07:45:08;;;;;;;6.63;4.50;;;9.80;44.30;;;;;;5087654;28;45227;-64
2023/03/05 07:47:37;;;;;;;8.27;4.50;;;9.80;44.20;;;;;;5087716;28;45271;-64
2023/03/05 07:50:04;;;;;;;6.80;4.00;;;9.80;44.20;;;;;;5087820;28;45308;-64
2023/03/05 07:52:31;;;;;;;6.43;4.00;;;9.80;44.20;;;;;;5087722;28;45284;-64
2023/03/05 07:54:58;;;;;;;10.73;5.03;;;9.80;44.20;;;;;;5087398;28;45269;-64
2023/03/05 07:57:24;;;;;;;9.67;4.70;;;9.80;44.20;;;;;;5086637;28;45316;-63
2023/03/05 07:59:51;;;;;;;8.37;4.20;;;9.90;44.20;;;;;;5087842;28;45414;-64
2023/03/05 08:02:19;;;;;;;6.87;4.50;;;9.90;44.30;;;;;;5087313;28;46305;-64
2023/03/05 08:04:47;;;;;;;8.43;4.20;;;9.90;44.20;;;;;;5087458;28;45244;-63
2023/03/05 08:07:14;;;;;;;7.73;4.40;;;9.90;44.20;;;;;;5087954;28;45348;-64
2023/03/05 08:09:42;;;;;;;7.23;4.70;;;9.90;44.80;;;;;;5087902;28;45632;-64
2023/03/05 08:12:09;;;;;;;5.83;4.20;;;9.90;44.20;;;;;;5087444;28;45304;-64
2023/03/05 08:14:36;;;;;;;6.57;4.07;;;9.90;44.20;;;;;;5086970;28;45217;-64
2023/03/05 08:17:04;;;;;;;7.77;4.50;;;9.90;44.20;;;;;;5087614;28;45358;-64
2023/03/05 08:19:30;;;;;;;6.70;4.00;;;9.90;44.20;;;;;;5087670;28;45361;-64
2023/03/05 08:21:59;;;;;;;7.37;4.43;;;9.90;44.10;;;;;;5087239;28;46351;-64
2023/03/05 08:24:28;;;;;;;5.47;3.97;;;9.90;44.10;;;;;;5087226;28;45281;-64
2023/03/05 08:26:55;;;;;;;6.67;4.40;;;9.90;44.70;;;;;;5087395;28;45249;-64
2023/03/05 08:29:22;;;;;;;6.13;3.90;;;9.90;44.10;;;;;;5087520;28;45372;-64
2023/03/05 08:31:49;;;;;;;7.27;4.50;;;9.90;44.00;;;;;;5086877;28;46710;-63
2023/03/05 08:34:16;;;;;;;7.97;4.33;;;9.90;44.00;;;;;;5087009;28;45313;-64
2023/03/05 08:36:43;;;;;;;7.27;3.90;;;9.90;44.00;;;;;;5087470;28;45241;-64
2023/03/05 08:39:12;;;;;;;7.17;4.43;;;10.00;44.00;;;;;;5087339;28;45431;-64
2023/03/05 08:41:39;;;;;;;6.70;4.30;;;10.00;44.10;;;;;;5087106;28;47632;-64
2023/03/05 08:44:06;;;;;;;8.37;4.17;;;10.00;44.00;;;;;;5087042;28;45143;-64
2023/03/05 08:46:33;;;;;;;7.70;4.13;;;10.00;44.00;;;;;;5087251;28;45328;-64
2023/03/05 08:49:00;;;;;;;9.10;4.27;;;10.00;43.90;;;;;;5087475;28;45387;-64
2023/03/05 08:51:27;;;;;;;5.87;3.77;;;10.00;43.90;;;;;;5086604;28;46391;-64
2023/03/05 08:53:54;;;;;;;6.13;3.80;;;10.00;43.90;;;;;;5086778;28;45306;-64
2023/03/05 08:56:22;;;;;;;6.23;3.73;;;10.00;43.80;;;;;;5086822;28;45320;-64
2023/03/05 08:58:51;;;;;;;7.53;4.23;;;10.00;43.80;;;;;;5087560;28;45435;-64
2023/03/05 09:01:18;;;;;;;7.97;4.20;;;10.00;43.80;;;;;;5086875;28;46418;-68
2023/03/05 09:03:45;;;;;;;6.10;4.07;;;10.00;43.80;;;;;;5086801;28;45246;-65
2023/03/05 09:06:12;;;;;;;7.57;4.00;;;10.10;43.90;;;;;;5086636;28;45311;-64
2023/03/05 09:08:39;;;;;;;5.20;3.43;;;10.00;43.70;;;;;;5086861;28;45377;-64
2023/03/05 09:11:07;;;;;;;5.90;3.83;;;10.10;43.80;;;;;;5086583;28;46330;-64
2023/03/05 09:13:35;;;;;;;6.60;4.37;;;10.10;43.70;;;;;;5086695;28;45240;-64
2023/03/05 09:16:03;;;;;;;5.83;3.83;;;10.10;43.70;;;;;;5086477;28;45309;-64
2023/03/05 09:18:30;;;;;;;6.27;3.37;;;10.10;44.30;;;;;;5086684;28;45269;-64
2023/03/05 09:20:57;;;;;;;5.53;3.53;;;10.10;44.10;;;;;;5086753;28;47597;-64
2023/03/05 09:23:24;;;;;;;5.80;4.00;;;10.10;43.60;;;;;;5086055;28;45328;-64
2023/03/05 09:25:51;;;;;;;7.37;4.40;;;10.10;43.60;;;;;;5086221;28;45336;-64
2023/03/05 09:28:18;;;;;;;5.00;3.07;;;10.10;43.60;;;;;;5086959;28;45565;-65
2023/03/05 09:30:46;;;;;;;6.47;4.00;;;10.10;43.60;;;;;;5086315;28;47307;-64
2023/03/05 09:33:13;;;;;;;5.93;3.70;;;10.10;43.50;;;;;;5086148;28;45402;-64
2023/03/05 09:35:40;;;;;;;5.67;3.83;;;10.20;43.60;;;;;;5086950;28;45258;-65
2023/03/05 09:38:07;;;;;;;6.67;4.30;;;10.20;43.60;;;;;;5086455;28;45314;-64
2023/03/05 09:40:40;;;;;;;5.93;4.10;;;10.20;43.50;;;;;;5085928;28;45391;-64
2023/03/05 09:43:11;;;;;;;5.80;4.10;;;10.20;43.50;;;;;;5086262;28;45277;-64
2023/03/05 09:45:39;;;;;;;7.47;3.83;;;10.20;43.60;;;;;;5085951;28;45320;-64
2023/03/05 09:48:13;;;;;;;7.30;3.77;;;10.20;43.60;;;;;;5083527;28;45348;-65
2023/03/05 09:50:41;;;;;;;6.43;3.67;;;10.20;43.40;;;;;;5085906;28;45282;-64
2023/03/05 09:53:25;;;;;;;4.03;3.20;;;10.20;43.50;;;;;;5085801;28;45206;-65
2023/03/05 09:55:53;;;;;;;6.30;3.90;;;10.20;43.50;;;;;;5086443;28;45341;-65
2023/03/05 09:58:31;;;;;;;5.97;3.53;;;10.20;44.10;;;;;;5086417;28;45517;-65
2023/03/05 10:01:00;;;;;;;6.23;4.10;;;10.20;43.50;;;;;;5086385;28;45824;-64
2023/03/05 10:03:31;;;;;;;6.63;3.83;;;10.20;43.50;;;;;;5086270;28;45184;-65
2023/03/05 10:06:05;;;;;;;6.17;4.10;;;10.30;43.50;;;;;;5086657;28;45399;-65
2023/03/05 10:08:44;;;;;;;7.00;3.40;;;10.30;43.50;;;;;;5086180;28;45453;-69
2023/03/05 10:11:24;;;;;;;5.07;3.23;;;10.30;43.50;;;;;;5086169;28;46407;-65
2023/03/05 10:13:51;;;;;;;7.80;3.90;;;10.30;43.50;;;;;;5085595;28;45226;-65
2023/03/05 10:16:39;;;;;;;5.93;3.67;;;10.30;43.50;;;;;;5085498;28;45399;-65
2023/03/05 10:19:09;;;;;;;6.33;3.80;;;10.30;43.50;;;;;;5072725;28;45245;-65
2023/03/05 10:21:38;;;;;;;5.40;3.33;;;10.30;43.50;;;;;;5088120;28;46464;-66
2023/03/05 10:24:11;;;;;;;5.23;3.37;;;10.30;43.70;;;;;;5087770;28;45487;-66
2023/03/05 10:26:47;;;;;;;7.20;3.60;;;10.30;44.30;;;;;;5089181;28;45364;-66
2023/03/05 10:29:26;;;;;;;8.37;3.27;;;10.40;44.70;;;;;;5089447;28;45441;-66
2023/03/05 10:31:57;;;;;;;8.70;3.70;;;10.40;44.60;;;;;;5089033;28;45531;-66
2023/03/05 10:34:39;;;;;;;10.40;3.97;;;10.50;44.30;;;;;;5088936;28;45436;-66
2023/03/05 10:37:38;;;;;;;9.10;4.33;;;10.50;45.10;;;;;;5088319;28;45424;-68
2023/03/05 10:40:18;;;;;;;8.67;3.90;;;10.60;45.40;;;;;;5051329;28;45528;-66
2023/03/05 10:42:48;;;;;;;7.20;4.23;;;10.60;45.40;;;;;;5088435;28;45569;-68
2023/03/05 10:45:17;;;;;;;8.17;3.80;;;10.80;45.50;;;;;;5088457;28;45512;-68
2023/03/05 10:47:46;;;;;;;7.97;3.73;;;10.80;45.10;;;;;;5088893;28;45302;-66
2023/03/05 10:50:17;;;;;;;5.97;3.60;;;11.00;44.60;;;;;;5089444;28;45562;-66
2023/03/05 10:52:47;;;;;;;7.10;3.80;;;11.10;44.50;;;;;;5089091;28;45484;-65
2023/03/05 10:55:15;;;;;;;9.93;4.03;;;11.20;44.50;;;;;;5089138;28;45195;-70
2023/03/05 10:57:42;;;;;;;8.57;4.23;;;11.30;44.40;;;;;;5089220;28;45341;-65
2023/03/05 11:00:17;;;;;;;8.00;3.93;;;11.40;44.40;;;;;;5089857;28;45432;-65
2023/03/05 11:02:58;;;;;;;7.50;4.00;;;11.50;44.70;;;;;;5089259;28;45350;-69
2023/03/05 11:05:43;;;;;;;6.40;3.57;;;11.50;45.10;;;;;;5088604;28;45399;-66
2023/03/05 11:08:25;;;;;;;6.30;3.53;;;11.60;44.50;;;;;;5088553;28;45357;-66
2023/03/05 11:11:08;;;;;;;7.90;3.40;;;11.60;44.80;;;;;;5088954;28;45296;-67
2023/03/05 11:13:36;;;;;;;8.20;3.73;;;11.60;44.30;;;;;;5088000;28;46211;-66
2023/03/05 11:16:05;;;;;;;14.30;3.87;;;11.60;43.70;;;;;;5088055;28;45328;-69
2023/03/05 11:18:33;;;;;;;10.27;3.87;;;11.60;43.90;;;;;;5088896;28;45392;-72
2023/03/05 11:21:09;;;;;;;8.00;4.10;;;11.70;43.80;;;;;;5089125;28;45444;-72
2023/03/05 11:23:36;;;;;;;7.03;4.43;;;11.70;43.50;;;;;;5088719;28;46638;-72
2023/03/05 11:26:04;;;;;;;7.37;3.70;;;11.80;43.70;;;;;;5088362;28;45337;-68
2023/03/05 11:28:33;;;;;;;7.43;4.50;;;11.80;43.60;;;;;;5088091;28;45330;-66
2023/03/05 11:31:03;;;;;;;9.37;4.60;;;11.90;44.00;;;;;;5088168;28;45353;-67
2023/03/05 11:33:30;;;;;;;8.37;4.50;;;11.90;43.90;;;;;;5087593;28;45447;-66
2023/03/05 11:36:13;;;;;;;13.83;4.40;;;12.00;43.80;;;;;;5087758;28;45336;-66
2023/03/05 11:38:46;;;;;;;11.33;4.27;;;12.00;43.80;;;;;;5087730;28;45316;-68
2023/03/05 11:41:13;;;;;;;9.43;4.33;;;12.10;44.00;;;;;;5087719;28;45403;-64
2023/03/05 11:43:41;;;;;;;9.53;4.37;;;12.10;44.00;;;;;;5087550;28;46957;-66
2023/03/05 11:46:07;;;;;;;7.90;4.10;;;12.10;44.00;;;;;;5087452;28;45919;-66
2023/03/05 11:48:36;;;;;;;10.23;4.83;;;12.20;44.00;;;;;;5087956;28;45258;-66
2023/03/05 11:51:07;;;;;;;11.83;4.93;;;12.20;44.10;;;;;;5085197;27;45470;-65
2023/03/05 11:53:36;;;;;;;9.77;5.27;;;12.30;44.00;;;;;;5086613;27;45448;-68
2023/03/05 11:56:04;;;;;;;10.33;4.90;;;12.40;44.00;;;;;;5087293;28;45356;-66
2023/03/05 11:58:32;;;;;;;8.47;4.87;;;12.50;43.90;;;;;;5087126;28;45305;-68
2023/03/05 12:00:59;;;;;;;9.97;5.50;;;12.60;44.00;;;;;;5087512;28;45451;-67
2023/03/05 12:03:29;;;;;;;12.53;4.77;;;12.70;43.90;;;;;;5080568;28;46376;-65
2023/03/05 12:05:57;;;;;;;11.17;4.87;;;12.80;43.60;;;;;;5074215;28;45380;-65
2023/03/05 12:08:27;;;;;;;13.30;4.60;;;12.90;42.90;;;;;;5083330;28;45471;-65
2023/03/05 12:10:55;;;;;;;6.63;4.53;;;12.90;42.50;;;;;;5079786;28;45364;-64
2023/03/05 12:13:26;;;;;;;6.40;4.23;;;13.00;42.60;;;;;;5082523;28;46611;-64
2023/03/05 12:16:03;;;;;;;11.93;4.50;;;13.10;43.00;;;;;;5077915;28;45392;-64
2023/03/05 12:18:35;;;;;;;10.23;4.90;;;13.30;42.10;;;;;;5081803;28;45407;-65
2023/03/05 12:21:05;;;;;;;6.70;4.30;;;13.40;41.80;;;;;;5087077;28;45443;-64
2023/03/05 12:23:45;;;;;;;10.13;4.47;;;13.30;41.60;;;;;;5071124;28;47648;-64
2023/03/05 12:26:13;;;;;;;8.60;4.27;;;13.30;41.80;;;;;;5077440;28;45468;-64
2023/03/05 12:28:56;;;;;;;6.23;3.80;;;13.20;41.80;;;;;;5074101;28;45497;-64
2023/03/05 12:31:28;;;;;;;9.07;3.93;;;13.20;41.80;;;;;;5078079;28;45228;-64
2023/03/05 12:33:55;;;;;;;9.77;3.67;;;13.20;42.60;;;;;;5079308;28;46477;-64
2023/03/05 12:36:38;;;;;;;5.37;3.83;;;13.10;42.00;;;;;;5082861;28;45412;-64
2023/03/05 12:39:42;;;;;;;9.10;3.57;;;13.10;42.10;;;;;;5079626;28;45661;-64
2023/03/05 12:42:45;;;;;;;6.53;3.37;;;13.00;42.20;;;;;;5078089;28;45442;-64
2023/03/05 12:45:32;;;;;;;4.27;3.03;;;13.00;42.30;;;;;;5074207;27;46303;-64
2023/03/05 12:48:37;;;;;;;6.77;4.00;;;13.00;42.30;;;;;;5082908;27;45411;-64
2023/03/05 12:51:04;;;;;;;6.67;3.63;;;13.00;42.40;;;;;;5078639;27;45516;-65
2023/03/05 12:53:31;;;;;;;5.77;3.63;;;13.00;42.30;;;;;;5081988;27;45411;-64